createdAt,value
2022-10-23T00:01:32.108Z,1.30
2022-10-23T00:04:04.461Z,1.30
2022-10-23T00:06:33.142Z,1.20
2022-10-23T00:09:00.835Z,1.00
2022-10-23T00:11:30.088Z,1.20
2022-10-23T00:14:00.297Z,1.17
2022-10-23T00:16:28.666Z,1.20
2022-10-23T00:18:56.353Z,1.13
2022-10-23T00:21:24.444Z,1.20
2022-10-23T00:23:52.180Z,1.08
2022-10-23T00:26:20.047Z,1.00
2022-10-23T00:28:50.542Z,1.30
2022-10-23T00:31:18.375Z,1.15
2022-10-23T00:33:45.974Z,1.10
2022-10-23T00:36:14.626Z,1.00
2022-10-23T00:38:41.968Z,1.17
2022-10-23T00:41:10.709Z,0.90
2022-10-23T00:44:24.017Z,1.52
2022-10-23T00:46:51.102Z,1.40
2022-10-23T00:49:18.279Z,1.10
2022-10-23T00:51:57.787Z,0.90
2022-10-23T00:54:27.802Z,1.02
2022-10-23T00:56:58.636Z,1.40
2022-10-23T00:59:26.511Z,1.30
2022-10-23T01:01:53.755Z,1.30
2022-10-23T01:04:22.009Z,1.00
2022-10-23T01:07:04.247Z,1.20
2022-10-23T01:09:44.178Z,1.20
2022-10-23T01:12:21.407Z,1.10
2022-10-23T01:15:36.358Z,1.30
2022-10-23T01:20:44.332Z,1.20
2022-10-23T01:23:35.207Z,1.17
2022-10-23T01:26:20.633Z,1.13
2022-10-23T01:29:03.759Z,1.02
2022-10-23T01:31:37.899Z,0.87
2022-10-23T01:34:20.732Z,1.20
2022-10-23T01:36:51.127Z,1.10
2022-10-23T01:39:28.191Z,1.10
2022-10-23T01:42:04.807Z,0.98
2022-10-23T01:44:40.084Z,1.00
2022-10-23T01:47:10.283Z,1.10
2022-10-23T01:49:40.627Z,0.93
2022-10-23T01:52:12.078Z,0.90
2022-10-23T01:54:42.556Z,0.80
2022-10-23T01:57:13.487Z,1.00
2022-10-23T01:59:45.725Z,0.80
2022-10-23T02:02:16.369Z,0.73
2022-10-23T02:04:51.522Z,0.85
2022-10-23T02:07:18.639Z,0.80
2022-10-23T02:09:45.724Z,0.68
2022-10-23T02:12:29.390Z,1.00
2022-10-23T02:15:04.056Z,0.82
2022-10-23T02:17:50.915Z,0.93
2022-10-23T02:20:25.203Z,0.90
2022-10-23T02:23:05.155Z,1.00
2022-10-23T02:25:43.100Z,0.95
2022-10-23T02:28:15.459Z,0.88
2022-10-23T02:30:45.627Z,1.10
2022-10-23T02:33:13.685Z,0.90
2022-10-23T02:35:40.892Z,0.70
2022-10-23T02:38:27.715Z,0.80
2022-10-23T02:40:58.607Z,0.68
2022-10-23T02:43:35.783Z,0.80
2022-10-23T02:46:26.310Z,0.40
2022-10-23T02:49:09.954Z,0.50
2022-10-23T02:51:57.236Z,0.50
2022-10-23T02:54:35.014Z,0.60
2022-10-23T02:57:13.108Z,0.40
2022-10-23T02:59:49.671Z,0.75
2022-10-23T03:02:26.146Z,0.68
2022-10-23T03:04:56.262Z,0.70
2022-10-23T03:07:26.722Z,0.55
2022-10-23T03:09:53.802Z,0.60
2022-10-23T03:12:20.905Z,0.60
2022-10-23T03:14:48.023Z,0.60
2022-10-23T03:17:15.651Z,0.80
2022-10-23T03:19:42.700Z,0.60
2022-10-23T03:22:09.990Z,0.70
2022-10-23T03:24:37.061Z,0.60
2022-10-23T03:27:04.230Z,0.57
2022-10-23T03:29:31.357Z,0.70
2022-10-23T03:31:58.490Z,0.70
2022-10-23T03:34:25.585Z,0.70
2022-10-23T03:36:52.710Z,0.50
2022-10-23T03:39:19.776Z,0.45
2022-10-23T03:41:47.300Z,0.50
2022-10-23T03:44:14.423Z,0.50
2022-10-23T03:46:41.553Z,0.45
2022-10-23T03:49:08.659Z,0.50
2022-10-23T03:55:23.471Z,0.60
2022-10-23T03:57:50.486Z,0.70
2022-10-23T04:00:17.783Z,0.50
2022-10-23T04:02:45.349Z,0.60
2022-10-23T04:05:13.001Z,0.57
2022-10-23T04:07:40.053Z,0.57
2022-10-23T04:10:07.797Z,0.63
2022-10-23T04:12:35.542Z,0.63
2022-10-23T04:15:02.612Z,0.50
2022-10-23T04:17:29.686Z,0.65
2022-10-23T04:19:56.946Z,0.43
2022-10-23T04:22:26.089Z,0.50
2022-10-23T04:24:55.660Z,0.60
2022-10-23T04:27:22.792Z,0.52
2022-10-23T04:29:50.085Z,0.60
2022-10-23T04:32:17.287Z,0.60
2022-10-23T04:34:44.311Z,0.60
2022-10-23T04:37:11.388Z,0.60
2022-10-23T04:39:38.556Z,0.50
2022-10-23T04:42:05.846Z,0.50
2022-10-23T04:44:32.872Z,0.43
2022-10-23T04:46:59.913Z,0.50
2022-10-23T04:49:27.056Z,0.57
2022-10-23T04:51:54.131Z,0.60
2022-10-23T04:54:21.191Z,0.50
2022-10-23T04:56:48.309Z,0.55
2022-10-23T04:59:15.421Z,0.52
2022-10-23T05:01:42.687Z,0.60
2022-10-23T05:04:10.360Z,0.68
2022-10-23T05:06:37.346Z,0.50
2022-10-23T05:09:04.616Z,0.60
2022-10-23T05:11:31.628Z,0.52
2022-10-23T05:13:58.694Z,0.60
2022-10-23T05:16:47.739Z,0.57
2022-10-23T05:19:23.333Z,0.52
2022-10-23T05:21:56.178Z,0.70
2022-10-23T05:24:26.911Z,0.55
2022-10-23T05:26:54.420Z,0.50
2022-10-23T05:29:21.602Z,0.60
2022-10-23T05:31:51.086Z,0.60
2022-10-23T05:34:20.444Z,0.60
2022-10-23T05:36:48.294Z,0.63
2022-10-23T05:39:16.059Z,0.50
2022-10-23T05:41:43.161Z,0.60
2022-10-23T05:44:10.239Z,0.50
2022-10-23T05:46:44.050Z,0.47
2022-10-23T05:51:42.037Z,0.50
2022-10-23T05:54:09.658Z,0.60
2022-10-23T05:56:38.863Z,0.50
2022-10-23T05:59:08.056Z,0.55
2022-10-23T06:01:35.269Z,0.50
2022-10-23T06:04:02.690Z,0.50
2022-10-23T06:06:30.002Z,0.60
2022-10-23T06:08:57.175Z,0.50
2022-10-23T06:11:24.407Z,0.65
2022-10-23T06:13:51.777Z,0.70
2022-10-23T06:16:21.623Z,0.70
2022-10-23T06:18:49.037Z,0.73
2022-10-23T06:21:17.107Z,0.80
2022-10-23T06:23:45.178Z,0.70
2022-10-23T06:26:15.171Z,0.70
2022-10-23T06:28:43.159Z,0.52
2022-10-23T06:31:12.486Z,0.68
2022-10-23T06:33:39.727Z,0.70
2022-10-23T06:36:10.747Z,0.50
2022-10-23T06:38:40.839Z,0.68
2022-10-23T06:41:13.239Z,0.80
2022-10-23T06:43:40.544Z,0.80
2022-10-23T06:46:07.732Z,0.88
2022-10-23T06:48:34.777Z,1.58
2022-10-23T06:51:09.253Z,0.90
2022-10-23T06:53:37.015Z,1.10
2022-10-23T06:56:06.140Z,1.20
2022-10-23T06:58:34.823Z,0.95
2022-10-23T07:01:07.180Z,1.02
2022-10-23T07:03:35.274Z,1.52
2022-10-23T07:06:03.683Z,1.00
2022-10-23T07:08:30.718Z,0.90
2022-10-23T07:10:58.652Z,0.60
2022-10-23T07:13:25.745Z,1.00
2022-10-23T07:15:52.797Z,1.00
2022-10-23T07:18:19.979Z,0.80
2022-10-23T07:20:51.432Z,0.73
2022-10-23T07:23:18.476Z,0.82
2022-10-23T07:25:45.814Z,0.70
2022-10-23T07:28:12.902Z,0.75
2022-10-23T07:30:41.357Z,0.90
2022-10-23T07:33:08.722Z,1.08
2022-10-23T07:35:38.508Z,0.80
2022-10-23T07:38:06.410Z,0.70
2022-10-23T07:40:33.523Z,0.80
2022-10-23T07:43:00.539Z,0.70
2022-10-23T07:45:27.527Z,0.80
2022-10-23T07:47:54.641Z,0.90
2022-10-23T07:50:21.734Z,1.02
2022-10-23T07:52:48.755Z,1.15
2022-10-23T07:55:15.977Z,1.10
2022-10-23T07:57:43.066Z,1.08
2022-10-23T08:00:11.485Z,1.02
2022-10-23T08:02:38.624Z,0.98
2022-10-23T08:05:06.365Z,0.93
2022-10-23T08:07:33.471Z,0.90
2022-10-23T08:10:00.525Z,0.90
2022-10-23T08:12:27.569Z,0.90
2022-10-23T08:14:54.704Z,1.30
2022-10-23T08:17:24.063Z,1.67
2022-10-23T08:19:54.685Z,2.07
2022-10-23T08:22:21.737Z,1.38
2022-10-23T08:24:48.823Z,1.40
2022-10-23T08:27:15.954Z,1.50
2022-10-23T08:29:43.031Z,2.00
2022-10-23T08:32:10.176Z,1.80
2022-10-23T08:34:38.247Z,2.00
2022-10-23T08:37:05.365Z,1.98
2022-10-23T08:39:32.532Z,1.95
2022-10-23T08:41:59.696Z,1.55
2022-10-23T08:45:04.328Z,1.40
2022-10-23T08:53:16.934Z,1.10
2022-10-23T08:55:47.036Z,1.08
2022-10-23T08:58:34.167Z,1.05
2022-10-23T09:01:01.453Z,1.10
2022-10-23T09:03:28.614Z,1.00
2022-10-23T09:06:09.145Z,1.20
2022-10-23T09:09:07.018Z,1.05
2022-10-23T09:11:47.778Z,1.10
2022-10-23T09:14:29.506Z,1.00
2022-10-23T09:19:47.210Z,1.00
2022-10-23T09:22:14.469Z,1.10
2022-10-23T09:24:43.935Z,1.13
2022-10-23T09:27:17.444Z,1.27
2022-10-23T09:29:50.763Z,1.42
2022-10-23T09:32:17.940Z,1.10
2022-10-23T09:34:55.647Z,1.20
2022-10-23T09:37:28.880Z,1.10
2022-10-23T09:40:18.295Z,1.00
2022-10-23T09:42:58.438Z,1.10
2022-10-23T09:45:29.766Z,1.05
2022-10-23T09:48:09.489Z,0.82
2022-10-23T09:50:36.541Z,1.10
2022-10-23T09:53:03.901Z,1.00
2022-10-23T09:55:31.432Z,1.00
2022-10-23T09:57:58.498Z,0.70
2022-10-23T10:00:27.697Z,0.80
2022-10-23T10:02:59.872Z,0.73
2022-10-23T10:05:26.891Z,0.75
2022-10-23T10:07:58.767Z,1.20
2022-10-23T10:10:29.307Z,6.10
2022-10-23T10:13:03.973Z,4.10
2022-10-23T10:15:40.864Z,1.33
2022-10-23T10:18:46.122Z,1.85
2022-10-23T10:21:45.042Z,1.50
2022-10-23T10:24:22.795Z,1.50
2022-10-23T10:27:25.404Z,1.70
2022-10-23T10:30:25.241Z,1.58
2022-10-23T10:33:01.657Z,1.00
2022-10-23T10:35:43.173Z,0.93
2022-10-23T10:38:26.857Z,1.15
2022-10-23T10:41:14.975Z,1.20
2022-10-23T10:44:05.791Z,1.30
2022-10-23T10:46:49.213Z,1.30
2022-10-23T10:49:21.670Z,1.02
2022-10-23T10:52:00.274Z,1.70
2022-10-23T10:54:27.455Z,1.52
2022-10-23T10:56:55.982Z,1.65
2022-10-23T10:59:27.943Z,1.52
2022-10-23T11:01:55.030Z,1.60
2022-10-23T11:04:59.805Z,1.60
2022-10-23T11:07:34.362Z,1.30
2022-10-23T11:10:04.815Z,1.45
2022-10-23T11:12:32.817Z,1.23
2022-10-23T11:15:00.340Z,1.05
2022-10-23T11:17:37.739Z,0.80
2022-10-23T11:20:04.924Z,0.90
2022-10-23T11:22:50.411Z,1.50
2022-10-23T11:25:56.650Z,1.30
2022-10-23T11:28:29.504Z,0.80
2022-10-23T11:31:14.765Z,0.90
2022-10-23T11:33:47.730Z,0.70
2022-10-23T11:36:19.171Z,0.70
2022-10-23T11:38:49.492Z,1.48
2022-10-23T11:41:34.215Z,1.10
2022-10-23T11:44:05.080Z,1.20
2022-10-23T11:46:33.973Z,1.65
2022-10-23T11:49:03.475Z,1.60
2022-10-23T11:51:36.586Z,1.42
2022-10-23T11:54:13.639Z,1.70
2022-10-23T11:57:10.827Z,1.30
2022-10-23T11:59:51.986Z,2.10
2022-10-23T12:02:29.405Z,2.05
2022-10-23T12:04:57.045Z,2.00
2022-10-23T12:07:38.893Z,2.28
2022-10-23T12:10:07.448Z,1.75
2022-10-23T12:12:35.552Z,1.77
2022-10-23T12:15:19.425Z,2.20
2022-10-23T12:17:48.368Z,1.70
2022-10-23T12:20:29.832Z,2.03
2022-10-23T12:23:11.805Z,2.13
2022-10-23T12:26:11.025Z,2.00
2022-10-23T12:29:20.015Z,2.55
2022-10-23T12:32:02.715Z,1.30
2022-10-23T12:34:59.437Z,1.40
2022-10-23T12:37:49.812Z,1.40
2022-10-23T12:40:16.955Z,2.38
2022-10-23T12:42:52.094Z,2.03
2022-10-23T12:45:37.510Z,2.50
2022-10-23T12:48:05.211Z,1.80
2022-10-23T12:50:34.799Z,2.42
2022-10-23T12:53:07.960Z,2.50
2022-10-23T12:55:54.816Z,2.33
2022-10-23T12:58:26.176Z,1.60
2022-10-23T13:00:55.815Z,2.17
2022-10-23T13:03:27.719Z,1.25
2022-10-23T13:05:59.064Z,1.65
2022-10-23T13:08:37.730Z,1.20
2022-10-23T13:11:05.859Z,1.10
2022-10-23T13:13:33.198Z,0.88
2022-10-23T13:16:00.263Z,1.00
2022-10-23T13:18:27.345Z,0.95
2022-10-23T13:20:54.410Z,0.90
2022-10-23T13:23:33.585Z,0.63
2022-10-23T13:26:02.931Z,1.05
2022-10-23T13:28:31.940Z,0.90
2022-10-23T13:31:11.963Z,0.70
2022-10-23T13:33:41.503Z,1.77
2022-10-23T13:36:14.336Z,1.00
2022-10-23T13:38:46.896Z,1.20
2022-10-23T13:41:20.012Z,0.85
2022-10-23T13:43:48.658Z,1.02
2022-10-23T13:46:17.685Z,1.00
2022-10-23T13:48:45.970Z,1.60
2022-10-23T13:51:20.161Z,2.20
2022-10-23T13:53:47.321Z,1.20
2022-10-23T13:56:16.465Z,1.73
2022-10-23T13:58:43.889Z,1.60
2022-10-23T14:01:33.063Z,1.33
2022-10-23T14:04:00.616Z,1.70
2022-10-23T14:06:27.675Z,1.60
2022-10-23T14:08:54.904Z,1.83
2022-10-23T14:11:22.059Z,1.92
2022-10-23T14:13:49.834Z,1.60
2022-10-23T14:16:19.505Z,1.10
2022-10-23T14:18:47.069Z,1.30
2022-10-23T14:21:16.872Z,1.08
2022-10-23T14:23:44.191Z,0.80
2022-10-23T14:26:14.342Z,1.30
2022-10-23T14:28:42.183Z,0.90
2022-10-23T14:31:14.595Z,1.00
2022-10-23T14:33:42.055Z,1.02
2022-10-23T14:36:09.783Z,1.13
2022-10-23T14:38:37.562Z,1.10
2022-10-23T14:41:11.750Z,1.70
2022-10-23T14:43:39.151Z,1.15
2022-10-23T14:46:21.943Z,1.20
2022-10-23T14:48:51.024Z,1.10
2022-10-23T14:51:26.499Z,1.50
2022-10-23T14:54:00.036Z,2.72
2022-10-23T14:56:27.652Z,3.40
2022-10-23T14:58:55.576Z,2.10
2022-10-23T15:01:23.127Z,1.90
2022-10-23T15:03:56.067Z,1.90
2022-10-23T15:06:24.111Z,2.33
2022-10-23T15:08:52.054Z,2.20
2022-10-23T15:11:19.338Z,2.20
2022-10-23T15:13:46.477Z,2.70
2022-10-23T15:16:13.882Z,2.30
2022-10-23T15:18:41.140Z,1.40
2022-10-23T15:21:09.176Z,2.10
2022-10-23T15:23:39.182Z,2.42
2022-10-23T15:26:09.382Z,2.15
2022-10-23T15:28:36.495Z,1.70
2022-10-23T15:31:03.889Z,1.58
2022-10-23T15:33:31.170Z,0.95
2022-10-23T15:35:58.292Z,2.60
2022-10-23T15:38:26.451Z,2.05
2022-10-23T15:41:01.195Z,2.00
2022-10-23T15:43:28.228Z,1.92
2022-10-23T15:45:55.284Z,2.40
2022-10-23T15:48:22.477Z,2.00
2022-10-23T15:50:50.363Z,1.88
2022-10-23T15:53:17.441Z,2.30
2022-10-23T15:55:44.483Z,2.05
2022-10-23T15:58:11.783Z,1.10
2022-10-23T16:00:39.913Z,2.00
2022-10-23T16:03:07.130Z,1.80
2022-10-23T16:05:34.246Z,2.20
2022-10-23T16:08:01.280Z,2.63
2022-10-23T16:10:29.723Z,1.30
2022-10-23T16:12:56.888Z,3.10
2022-10-23T16:15:24.046Z,1.35
2022-10-23T16:17:51.159Z,2.08
2022-10-23T16:20:18.316Z,2.53
2022-10-23T16:22:45.699Z,2.75
2022-10-23T16:25:13.156Z,1.88
2022-10-23T16:27:40.318Z,1.95
2022-10-23T16:30:09.655Z,1.52
2022-10-23T16:32:37.102Z,4.13
2022-10-23T16:35:04.381Z,2.08
2022-10-23T16:37:31.572Z,2.58
2022-10-23T16:39:58.801Z,2.67
2022-10-23T16:42:26.324Z,2.35
2022-10-23T16:44:53.381Z,2.00
2022-10-23T16:47:20.491Z,1.80
2022-10-23T16:49:47.578Z,1.40
2022-10-23T16:52:14.665Z,1.60
2022-10-23T16:54:43.829Z,1.33
2022-10-23T16:57:10.888Z,1.50
2022-10-23T16:59:37.966Z,2.05
2022-10-23T17:02:05.398Z,3.03
2022-10-23T17:04:32.552Z,1.80
2022-10-23T17:06:59.619Z,1.40
2022-10-23T17:09:28.015Z,1.20
2022-10-23T17:11:55.070Z,1.05
2022-10-23T17:14:25.311Z,1.50
2022-10-23T17:16:53.307Z,1.30
2022-10-23T17:19:43.671Z,1.40
2022-10-23T17:22:13.467Z,1.50
2022-10-23T17:24:42.118Z,1.23
2022-10-23T17:27:09.506Z,1.70
2022-10-23T17:29:36.807Z,1.58
2022-10-23T17:32:04.435Z,2.22
2022-10-23T17:34:31.498Z,1.95
2022-10-23T17:36:58.742Z,1.50
2022-10-23T17:39:28.184Z,1.88
2022-10-23T17:41:55.683Z,1.40
2022-10-23T17:44:23.076Z,1.40
2022-10-23T17:46:54.689Z,1.33
2022-10-23T17:49:22.839Z,1.15
2022-10-23T17:51:54.981Z,1.63
2022-10-23T17:54:23.054Z,1.30
2022-10-23T17:56:50.243Z,1.42
2022-10-23T17:59:19.931Z,1.50
2022-10-23T18:01:48.716Z,1.08
2022-10-23T18:04:18.712Z,1.08
2022-10-23T18:06:49.453Z,0.98
2022-10-23T18:09:17.365Z,1.00
2022-10-23T18:11:48.122Z,1.20
2022-10-23T18:14:17.961Z,1.08
2022-10-23T18:16:46.242Z,1.00
2022-10-23T18:19:14.601Z,1.00
2022-10-23T18:21:41.710Z,0.80
2022-10-23T18:24:09.102Z,1.00
2022-10-23T18:26:38.042Z,1.23
2022-10-23T18:29:08.044Z,1.10
2022-10-23T18:31:37.577Z,1.20
2022-10-23T18:34:14.005Z,1.00
2022-10-23T18:36:41.501Z,1.35
2022-10-23T18:39:12.848Z,1.10
2022-10-23T18:41:43.738Z,0.98
2022-10-23T18:44:15.982Z,0.80
2022-10-23T18:46:43.118Z,0.90
2022-10-23T18:49:10.457Z,1.35
2022-10-23T18:51:38.087Z,1.10
2022-10-23T18:54:08.621Z,0.90
2022-10-23T18:56:36.301Z,1.20
2022-10-23T18:59:05.662Z,1.27
2022-10-23T19:01:33.490Z,1.20
2022-10-23T19:04:02.006Z,1.40
2022-10-23T19:06:31.351Z,1.40
2022-10-23T19:08:59.018Z,1.00
2022-10-23T19:11:27.240Z,0.90
2022-10-23T19:13:54.539Z,1.10
2022-10-23T19:16:40.059Z,1.30
2022-10-23T19:19:32.426Z,1.50
2022-10-23T19:22:00.350Z,1.40
2022-10-23T19:24:42.182Z,2.53
2022-10-23T19:27:09.922Z,2.30
2022-10-23T19:29:41.004Z,2.28
2022-10-23T19:32:08.730Z,3.00
2022-10-23T19:34:35.847Z,2.92
2022-10-23T19:37:03.073Z,3.10
2022-10-23T19:39:30.305Z,3.13
2022-10-23T19:41:57.988Z,3.20
2022-10-23T19:44:25.572Z,3.22
2022-10-23T19:46:52.703Z,2.30
2022-10-23T19:49:20.162Z,1.00
2022-10-23T19:51:51.196Z,2.03
2022-10-23T19:54:19.655Z,2.00
2022-10-23T19:56:46.763Z,1.50
2022-10-23T19:59:14.052Z,1.40
2022-10-23T20:01:45.007Z,1.10
2022-10-23T20:04:16.034Z,1.35
2022-10-23T20:06:43.068Z,1.73
2022-10-23T20:09:10.311Z,1.27
2022-10-23T20:11:40.045Z,1.52
2022-10-23T20:14:07.940Z,1.58
2022-10-23T20:16:37.637Z,1.77
2022-10-23T20:19:08.321Z,1.83
2022-10-23T20:21:36.963Z,2.10
2022-10-23T20:24:04.080Z,2.13
2022-10-23T20:26:31.410Z,2.25
2022-10-23T20:28:58.749Z,2.40
2022-10-23T20:31:27.678Z,2.78
2022-10-23T20:33:56.235Z,2.70
2022-10-23T20:36:28.183Z,2.55
2022-10-23T20:38:56.624Z,3.03
2022-10-23T20:41:26.600Z,3.03
2022-10-23T20:43:56.241Z,3.38
2022-10-23T20:46:23.506Z,3.30
2022-10-23T20:48:51.191Z,2.75
2022-10-23T20:51:20.544Z,2.90
2022-10-23T20:53:48.462Z,2.78
2022-10-23T20:56:18.504Z,2.65
2022-10-23T20:58:45.774Z,2.80
2022-10-23T21:01:16.831Z,2.63
2022-10-23T21:03:49.241Z,2.58
2022-10-23T21:06:17.451Z,2.55
2022-10-23T21:08:44.637Z,2.65
2022-10-23T21:11:14.554Z,2.28
2022-10-23T21:13:43.402Z,2.20
2022-10-23T21:16:20.889Z,2.47
2022-10-23T21:18:51.203Z,3.25
2022-10-23T21:21:21.074Z,3.10
2022-10-23T21:23:50.313Z,2.53
2022-10-23T21:26:19.052Z,2.33
2022-10-23T21:28:55.650Z,3.20
2022-10-23T21:31:28.404Z,2.80
2022-10-23T21:33:55.692Z,2.88
2022-10-23T21:36:24.442Z,3.00
2022-10-23T21:38:57.316Z,3.63
2022-10-23T21:41:26.477Z,3.90
2022-10-23T21:43:55.402Z,3.83
2022-10-23T21:46:23.540Z,3.80
2022-10-23T21:48:51.076Z,3.30
2022-10-23T21:51:28.109Z,2.47
2022-10-23T21:53:56.029Z,2.20
2022-10-23T21:56:38.393Z,2.17
2022-10-23T22:01:43.512Z,1.90
2022-10-23T22:04:14.610Z,1.52
2022-10-23T22:06:42.672Z,1.52
2022-10-23T22:09:13.339Z,1.60
2022-10-23T22:11:40.873Z,1.50
2022-10-23T22:14:08.397Z,1.05
2022-10-23T22:16:35.612Z,1.30
2022-10-23T22:19:03.039Z,1.10
2022-10-23T22:21:31.442Z,1.20
2022-10-23T22:24:00.764Z,1.20
2022-10-23T22:26:34.462Z,1.15
2022-10-23T22:29:06.596Z,1.00
2022-10-23T22:31:34.988Z,1.00
2022-10-23T22:34:18.448Z,1.00
2022-10-23T22:36:53.249Z,1.05
2022-10-23T22:39:21.041Z,1.00
2022-10-23T22:41:48.254Z,1.05
2022-10-23T22:44:15.772Z,1.08
2022-10-23T22:46:43.573Z,1.00
2022-10-23T22:49:11.178Z,0.70
2022-10-23T22:51:39.925Z,1.10
2022-10-23T22:54:07.386Z,1.00
2022-10-23T22:56:34.965Z,1.00
2022-10-23T22:59:02.368Z,0.88
2022-10-23T23:01:40.477Z,0.98
2022-10-23T23:04:26.202Z,1.20
2022-10-23T23:06:55.562Z,0.80
2022-10-23T23:09:22.750Z,1.10
2022-10-23T23:11:52.992Z,1.17
2022-10-23T23:14:24.403Z,0.90
2022-10-23T23:16:53.427Z,1.10
2022-10-23T23:19:20.612Z,0.95
2022-10-23T23:21:47.751Z,0.90
2022-10-23T23:24:14.946Z,0.80
2022-10-23T23:26:41.975Z,1.00
2022-10-23T23:29:09.166Z,0.90
2022-10-23T23:31:36.254Z,1.00
2022-10-23T23:34:03.314Z,1.05
2022-10-23T23:36:30.734Z,1.08
2022-10-23T23:38:58.439Z,0.90
2022-10-23T23:41:26.765Z,1.40
2022-10-23T23:43:55.286Z,1.00
2022-10-23T23:46:22.650Z,0.95
2022-10-23T23:48:50.387Z,1.10
2022-10-23T23:51:19.217Z,1.20
2022-10-23T23:53:46.698Z,1.20
2022-10-23T23:56:14.066Z,1.10
2022-10-23T23:58:41.224Z,1.70
